sensor_id;sensor_type;location;lat;lon;timestamp;P1;durP1;ratioP1;P2;durP2;ratioP2
3985;SDS011;2007;48.750;9.278;2023-02-28T00:01:12;1.77;;;1.27;;
3985;SDS011;2007;48.750;9.278;2023-02-28T00:03:40;2.20;;;1.70;;
3985;SDS011;2007;48.750;9.278;2023-02-28T00:06:08;3.00;;;1.60;;
3985;SDS011;2007;48.750;9.278;2023-02-28T00:08:38;2.03;;;1.40;;
3985;SDS011;2007;48.750;9.278;2023-02-28T00:11:07;1.60;;;1.10;;
3985;SDS011;2007;48.750;9.278;2023-02-28T00:13:36;2.20;;;1.50;;
3985;SDS011;2007;48.750;9.278;2023-02-28T00:16:06;2.30;;;1.47;;
3985;SDS011;2007;48.750;9.278;2023-02-28T00:18:36;1.90;;;1.30;;
3985;SDS011;2007;48.750;9.278;2023-02-28T00:21:04;1.57;;;1.17;;
3985;SDS011;2007;48.750;9.278;2023-02-28T00:23:33;1.93;;;1.30;;
3985;SDS011;2007;48.750;9.278;2023-02-28T00:26:03;1.60;;;1.10;;
3985;SDS011;2007;48.750;9.278;2023-02-28T00:28:31;1.90;;;1.40;;
3985;SDS011;2007;48.750;9.278;2023-02-28T00:30:59;1.50;;;1.03;;
3985;SDS011;2007;48.750;9.278;2023-02-28T00:33:28;1.73;;;1.17;;
3985;SDS011;2007;48.750;9.278;2023-02-28T00:36:03;1.80;;;1.40;;
3985;SDS011;2007;48.750;9.278;2023-02-28T00:38:32;1.97;;;1.60;;
3985;SDS011;2007;48.750;9.278;2023-02-28T00:41:00;2.60;;;1.10;;
3985;SDS011;2007;48.750;9.278;2023-02-28T00:43:33;1.73;;;1.00;;
3985;SDS011;2007;48.750;9.278;2023-02-28T00:46:02;1.70;;;1.37;;
3985;SDS011;2007;48.750;9.278;2023-02-28T00:48:30;1.70;;;1.07;;
3985;SDS011;2007;48.750;9.278;2023-02-28T00:50:59;1.70;;;1.30;;
3985;SDS011;2007;48.750;9.278;2023-02-28T00:53:27;1.90;;;1.40;;
3985;SDS011;2007;48.750;9.278;2023-02-28T00:55:55;2.50;;;1.10;;
3985;SDS011;2007;48.750;9.278;2023-02-28T00:58:23;2.33;;;1.37;;
3985;SDS011;2007;48.750;9.278;2023-02-28T01:00:52;1.67;;;1.30;;
3985;SDS011;2007;48.750;9.278;2023-02-28T01:03:20;1.70;;;1.30;;
3985;SDS011;2007;48.750;9.278;2023-02-28T01:05:49;1.60;;;1.10;;
3985;SDS011;2007;48.750;9.278;2023-02-28T01:08:19;1.73;;;1.10;;
3985;SDS011;2007;48.750;9.278;2023-02-28T01:10:47;2.47;;;1.73;;
3985;SDS011;2007;48.750;9.278;2023-02-28T01:13:15;2.10;;;1.40;;
3985;SDS011;2007;48.750;9.278;2023-02-28T01:15:46;2.00;;;1.50;;
3985;SDS011;2007;48.750;9.278;2023-02-28T01:18:18;2.33;;;1.43;;
3985;SDS011;2007;48.750;9.278;2023-02-28T01:20:46;1.80;;;1.47;;
3985;SDS011;2007;48.750;9.278;2023-02-28T01:23:14;1.70;;;1.23;;
3985;SDS011;2007;48.750;9.278;2023-02-28T01:25:42;2.23;;;1.30;;
3985;SDS011;2007;48.750;9.278;2023-02-28T01:28:10;1.87;;;1.20;;
3985;SDS011;2007;48.750;9.278;2023-02-28T01:30:38;1.83;;;1.23;;
3985;SDS011;2007;48.750;9.278;2023-02-28T01:33:06;1.53;;;0.97;;
3985;SDS011;2007;48.750;9.278;2023-02-28T01:35:35;1.80;;;1.30;;
3985;SDS011;2007;48.750;9.278;2023-02-28T01:38:04;2.03;;;1.50;;
3985;SDS011;2007;48.750;9.278;2023-02-28T01:40:47;1.90;;;1.33;;
3985;SDS011;2007;48.750;9.278;2023-02-28T01:43:19;1.90;;;1.60;;
3985;SDS011;2007;48.750;9.278;2023-02-28T01:45:48;1.80;;;1.20;;
3985;SDS011;2007;48.750;9.278;2023-02-28T01:48:16;2.10;;;1.27;;
3985;SDS011;2007;48.750;9.278;2023-02-28T01:50:47;2.20;;;1.30;;
3985;SDS011;2007;48.750;9.278;2023-02-28T01:53:17;1.70;;;1.20;;
3985;SDS011;2007;48.750;9.278;2023-02-28T01:55:48;2.00;;;1.50;;
3985;SDS011;2007;48.750;9.278;2023-02-28T01:58:19;1.90;;;1.53;;
3985;SDS011;2007;48.750;9.278;2023-02-28T02:00:47;2.53;;;1.30;;
3985;SDS011;2007;48.750;9.278;2023-02-28T02:03:16;1.93;;;1.33;;
3985;SDS011;2007;48.750;9.278;2023-02-28T02:05:48;1.93;;;1.67;;
3985;SDS011;2007;48.750;9.278;2023-02-28T02:08:17;2.93;;;1.83;;
3985;SDS011;2007;48.750;9.278;2023-02-28T02:10:48;2.43;;;1.57;;
3985;SDS011;2007;48.750;9.278;2023-02-28T02:16:28;1.93;;;0.93;;
3985;SDS011;2007;48.750;9.278;2023-02-28T02:19:09;1.80;;;1.10;;
3985;SDS011;2007;48.750;9.278;2023-02-28T02:24:58;2.07;;;1.43;;
3985;SDS011;2007;48.750;9.278;2023-02-28T02:27:43;1.80;;;1.30;;
3985;SDS011;2007;48.750;9.278;2023-02-28T02:30:39;2.40;;;1.50;;
3985;SDS011;2007;48.750;9.278;2023-02-28T02:33:33;2.23;;;1.40;;
3985;SDS011;2007;48.750;9.278;2023-02-28T02:36:43;1.90;;;1.30;;
3985;SDS011;2007;48.750;9.278;2023-02-28T02:39:16;2.73;;;1.60;;
3985;SDS011;2007;48.750;9.278;2023-02-28T02:41:49;2.67;;;1.80;;
3985;SDS011;2007;48.750;9.278;2023-02-28T02:44:20;2.93;;;1.70;;
3985;SDS011;2007;48.750;9.278;2023-02-28T02:46:51;1.73;;;1.33;;
3985;SDS011;2007;48.750;9.278;2023-02-28T02:49:26;1.83;;;1.33;;
3985;SDS011;2007;48.750;9.278;2023-02-28T02:52:00;2.20;;;1.57;;
3985;SDS011;2007;48.750;9.278;2023-02-28T02:54:32;3.20;;;1.10;;
3985;SDS011;2007;48.750;9.278;2023-02-28T02:57:03;3.73;;;1.60;;
3985;SDS011;2007;48.750;9.278;2023-02-28T02:59:35;2.57;;;1.47;;
3985;SDS011;2007;48.750;9.278;2023-02-28T03:02:06;2.20;;;1.53;;
3985;SDS011;2007;48.750;9.278;2023-02-28T03:04:38;1.80;;;1.60;;
3985;SDS011;2007;48.750;9.278;2023-02-28T03:07:11;2.70;;;1.37;;
3985;SDS011;2007;48.750;9.278;2023-02-28T03:09:39;2.57;;;1.80;;
3985;SDS011;2007;48.750;9.278;2023-02-28T03:12:09;1.70;;;1.13;;
3985;SDS011;2007;48.750;9.278;2023-02-28T03:14:40;2.30;;;1.23;;
3985;SDS011;2007;48.750;9.278;2023-02-28T03:17:19;3.60;;;1.10;;
3985;SDS011;2007;48.750;9.278;2023-02-28T03:20:01;1.60;;;1.30;;
3985;SDS011;2007;48.750;9.278;2023-02-28T03:22:42;1.87;;;1.57;;
3985;SDS011;2007;48.750;9.278;2023-02-28T03:25:20;2.43;;;1.37;;
3985;SDS011;2007;48.750;9.278;2023-02-28T03:28:00;2.30;;;1.67;;
3985;SDS011;2007;48.750;9.278;2023-02-28T03:30:33;1.93;;;1.27;;
3985;SDS011;2007;48.750;9.278;2023-02-28T03:33:06;1.90;;;1.40;;
3985;SDS011;2007;48.750;9.278;2023-02-28T03:35:39;2.03;;;1.20;;
3985;SDS011;2007;48.750;9.278;2023-02-28T03:38:11;2.20;;;1.20;;
3985;SDS011;2007;48.750;9.278;2023-02-28T03:40:46;2.27;;;1.30;;
3985;SDS011;2007;48.750;9.278;2023-02-28T03:43:17;2.93;;;1.10;;
3985;SDS011;2007;48.750;9.278;2023-02-28T03:45:50;1.80;;;1.47;;
3985;SDS011;2007;48.750;9.278;2023-02-28T03:48:21;2.03;;;1.40;;
3985;SDS011;2007;48.750;9.278;2023-02-28T03:50:53;2.00;;;1.30;;
3985;SDS011;2007;48.750;9.278;2023-02-28T03:53:27;1.63;;;1.20;;
3985;SDS011;2007;48.750;9.278;2023-02-28T03:55:59;1.80;;;1.27;;
3985;SDS011;2007;48.750;9.278;2023-02-28T03:58:35;2.27;;;1.37;;
3985;SDS011;2007;48.750;9.278;2023-02-28T04:01:09;1.60;;;0.83;;
3985;SDS011;2007;48.750;9.278;2023-02-28T04:03:40;2.07;;;1.20;;
3985;SDS011;2007;48.750;9.278;2023-02-28T04:06:09;1.90;;;1.40;;
3985;SDS011;2007;48.750;9.278;2023-02-28T04:08:45;2.67;;;1.70;;
3985;SDS011;2007;48.750;9.278;2023-02-28T04:11:16;3.10;;;1.50;;
3985;SDS011;2007;48.750;9.278;2023-02-28T04:13:48;2.00;;;1.30;;
3985;SDS011;2007;48.750;9.278;2023-02-28T04:16:16;1.83;;;1.40;;
3985;SDS011;2007;48.750;9.278;2023-02-28T04:18:59;2.47;;;1.63;;
3985;SDS011;2007;48.750;9.278;2023-02-28T04:21:29;2.10;;;1.50;;
3985;SDS011;2007;48.750;9.278;2023-02-28T04:24:00;1.90;;;1.47;;
3985;SDS011;2007;48.750;9.278;2023-02-28T04:26:28;2.03;;;1.50;;
3985;SDS011;2007;48.750;9.278;2023-02-28T04:28:57;1.70;;;1.20;;
3985;SDS011;2007;48.750;9.278;2023-02-28T04:31:25;2.10;;;1.40;;
3985;SDS011;2007;48.750;9.278;2023-02-28T04:33:54;1.80;;;1.10;;
3985;SDS011;2007;48.750;9.278;2023-02-28T04:36:22;1.90;;;1.20;;
3985;SDS011;2007;48.750;9.278;2023-02-28T04:38:50;2.00;;;1.17;;
3985;SDS011;2007;48.750;9.278;2023-02-28T04:41:20;1.70;;;1.33;;
3985;SDS011;2007;48.750;9.278;2023-02-28T04:43:49;1.53;;;1.10;;
3985;SDS011;2007;48.750;9.278;2023-02-28T04:46:18;2.13;;;1.20;;
3985;SDS011;2007;48.750;9.278;2023-02-28T04:48:47;1.80;;;1.30;;
3985;SDS011;2007;48.750;9.278;2023-02-28T04:51:15;1.80;;;1.33;;
3985;SDS011;2007;48.750;9.278;2023-02-28T04:53:44;2.80;;;1.20;;
3985;SDS011;2007;48.750;9.278;2023-02-28T04:56:13;2.60;;;1.60;;
3985;SDS011;2007;48.750;9.278;2023-02-28T04:58:44;1.77;;;1.47;;
3985;SDS011;2007;48.750;9.278;2023-02-28T05:01:16;1.70;;;1.03;;
3985;SDS011;2007;48.750;9.278;2023-02-28T05:03:46;1.63;;;1.20;;
3985;SDS011;2007;48.750;9.278;2023-02-28T05:06:15;2.63;;;1.40;;
3985;SDS011;2007;48.750;9.278;2023-02-28T05:08:44;1.73;;;1.33;;
3985;SDS011;2007;48.750;9.278;2023-02-28T05:11:14;2.70;;;1.80;;
3985;SDS011;2007;48.750;9.278;2023-02-28T05:13:45;2.83;;;1.50;;
3985;SDS011;2007;48.750;9.278;2023-02-28T05:16:14;2.63;;;1.80;;
3985;SDS011;2007;48.750;9.278;2023-02-28T05:18:42;4.37;;;1.50;;
3985;SDS011;2007;48.750;9.278;2023-02-28T05:21:24;3.00;;;1.67;;
3985;SDS011;2007;48.750;9.278;2023-02-28T05:23:57;1.90;;;1.30;;
3985;SDS011;2007;48.750;9.278;2023-02-28T05:26:27;1.70;;;1.30;;
3985;SDS011;2007;48.750;9.278;2023-02-28T05:28:56;2.30;;;1.23;;
3985;SDS011;2007;48.750;9.278;2023-02-28T05:31:24;2.50;;;1.03;;
3985;SDS011;2007;48.750;9.278;2023-02-28T05:33:53;2.00;;;1.43;;
3985;SDS011;2007;48.750;9.278;2023-02-28T05:36:21;3.10;;;1.57;;
3985;SDS011;2007;48.750;9.278;2023-02-28T05:38:50;1.80;;;1.20;;
3985;SDS011;2007;48.750;9.278;2023-02-28T05:41:18;1.70;;;1.43;;
3985;SDS011;2007;48.750;9.278;2023-02-28T05:43:47;3.10;;;1.60;;
3985;SDS011;2007;48.750;9.278;2023-02-28T05:46:16;3.27;;;1.77;;
3985;SDS011;2007;48.750;9.278;2023-02-28T05:48:45;1.93;;;1.40;;
3985;SDS011;2007;48.750;9.278;2023-02-28T05:51:15;2.13;;;1.50;;
3985;SDS011;2007;48.750;9.278;2023-02-28T05:53:43;2.70;;;1.43;;
3985;SDS011;2007;48.750;9.278;2023-02-28T05:56:11;2.43;;;1.30;;
3985;SDS011;2007;48.750;9.278;2023-02-28T05:58:39;2.60;;;1.50;;
3985;SDS011;2007;48.750;9.278;2023-02-28T06:01:21;1.83;;;1.43;;
3985;SDS011;2007;48.750;9.278;2023-02-28T06:03:51;2.53;;;1.57;;
3985;SDS011;2007;48.750;9.278;2023-02-28T06:06:19;2.70;;;1.97;;
3985;SDS011;2007;48.750;9.278;2023-02-28T06:08:47;2.37;;;1.40;;
3985;SDS011;2007;48.750;9.278;2023-02-28T06:11:15;2.10;;;1.60;;
3985;SDS011;2007;48.750;9.278;2023-02-28T06:13:42;3.57;;;2.53;;
3985;SDS011;2007;48.750;9.278;2023-02-28T06:16:10;2.57;;;1.77;;
3985;SDS011;2007;48.750;9.278;2023-02-28T06:18:40;2.57;;;1.50;;
3985;SDS011;2007;48.750;9.278;2023-02-28T06:21:08;2.33;;;1.57;;
3985;SDS011;2007;48.750;9.278;2023-02-28T06:23:36;2.17;;;1.83;;
3985;SDS011;2007;48.750;9.278;2023-02-28T06:26:04;2.20;;;1.53;;
3985;SDS011;2007;48.750;9.278;2023-02-28T06:28:32;2.87;;;1.80;;
3985;SDS011;2007;48.750;9.278;2023-02-28T06:31:04;3.10;;;1.73;;
3985;SDS011;2007;48.750;9.278;2023-02-28T06:33:33;3.20;;;2.03;;
3985;SDS011;2007;48.750;9.278;2023-02-28T06:36:04;3.50;;;2.20;;
3985;SDS011;2007;48.750;9.278;2023-02-28T06:38:33;2.30;;;1.93;;
3985;SDS011;2007;48.750;9.278;2023-02-28T06:41:01;2.30;;;1.43;;
3985;SDS011;2007;48.750;9.278;2023-02-28T06:43:30;2.80;;;1.57;;
3985;SDS011;2007;48.750;9.278;2023-02-28T06:45:59;2.80;;;1.57;;
3985;SDS011;2007;48.750;9.278;2023-02-28T06:48:29;2.50;;;1.53;;
3985;SDS011;2007;48.750;9.278;2023-02-28T06:51:05;2.13;;;1.40;;
3985;SDS011;2007;48.750;9.278;2023-02-28T06:53:34;2.20;;;1.73;;
3985;SDS011;2007;48.750;9.278;2023-02-28T06:56:05;1.93;;;1.43;;
3985;SDS011;2007;48.750;9.278;2023-02-28T06:58:34;2.10;;;1.33;;
3985;SDS011;2007;48.750;9.278;2023-02-28T07:01:03;2.03;;;1.57;;
3985;SDS011;2007;48.750;9.278;2023-02-28T07:03:32;2.30;;;1.70;;
3985;SDS011;2007;48.750;9.278;2023-02-28T07:06:01;3.70;;;1.97;;
3985;SDS011;2007;48.750;9.278;2023-02-28T07:08:31;2.60;;;1.70;;
3985;SDS011;2007;48.750;9.278;2023-02-28T07:10:59;1.50;;;1.20;;
3985;SDS011;2007;48.750;9.278;2023-02-28T07:13:27;3.33;;;2.07;;
3985;SDS011;2007;48.750;9.278;2023-02-28T07:15:56;1.77;;;1.50;;
3985;SDS011;2007;48.750;9.278;2023-02-28T07:18:25;2.50;;;1.63;;
3985;SDS011;2007;48.750;9.278;2023-02-28T07:20:53;2.17;;;1.60;;
3985;SDS011;2007;48.750;9.278;2023-02-28T07:23:22;2.17;;;1.50;;
3985;SDS011;2007;48.750;9.278;2023-02-28T07:25:51;1.70;;;1.20;;
3985;SDS011;2007;48.750;9.278;2023-02-28T07:28:19;2.20;;;1.70;;
3985;SDS011;2007;48.750;9.278;2023-02-28T07:30:47;2.47;;;1.33;;
3985;SDS011;2007;48.750;9.278;2023-02-28T07:33:15;2.10;;;1.50;;
3985;SDS011;2007;48.750;9.278;2023-02-28T07:35:43;2.20;;;1.50;;
3985;SDS011;2007;48.750;9.278;2023-02-28T07:38:11;2.30;;;1.60;;
3985;SDS011;2007;48.750;9.278;2023-02-28T07:40:39;2.73;;;1.73;;
3985;SDS011;2007;48.750;9.278;2023-02-28T07:43:09;2.63;;;1.50;;
3985;SDS011;2007;48.750;9.278;2023-02-28T07:45:37;3.03;;;1.63;;
3985;SDS011;2007;48.750;9.278;2023-02-28T07:48:05;3.17;;;1.90;;
3985;SDS011;2007;48.750;9.278;2023-02-28T07:50:36;2.00;;;1.70;;
3985;SDS011;2007;48.750;9.278;2023-02-28T07:53:05;2.37;;;1.50;;
3985;SDS011;2007;48.750;9.278;2023-02-28T07:55:33;2.03;;;1.50;;
3985;SDS011;2007;48.750;9.278;2023-02-28T07:58:01;2.50;;;1.80;;
3985;SDS011;2007;48.750;9.278;2023-02-28T08:00:30;2.67;;;1.60;;
3985;SDS011;2007;48.750;9.278;2023-02-28T08:02:58;2.00;;;1.77;;
3985;SDS011;2007;48.750;9.278;2023-02-28T08:05:26;2.43;;;1.83;;
3985;SDS011;2007;48.750;9.278;2023-02-28T08:07:54;3.73;;;1.80;;
3985;SDS011;2007;48.750;9.278;2023-02-28T08:10:22;3.10;;;2.00;;
3985;SDS011;2007;48.750;9.278;2023-02-28T08:12:50;3.83;;;2.10;;
3985;SDS011;2007;48.750;9.278;2023-02-28T08:15:18;4.30;;;1.73;;
3985;SDS011;2007;48.750;9.278;2023-02-28T08:17:48;3.07;;;1.80;;
3985;SDS011;2007;48.750;9.278;2023-02-28T08:20:15;2.87;;;2.27;;
3985;SDS011;2007;48.750;9.278;2023-02-28T08:22:43;2.57;;;2.10;;
3985;SDS011;2007;48.750;9.278;2023-02-28T08:25:11;2.07;;;1.37;;
3985;SDS011;2007;48.750;9.278;2023-02-28T08:27:39;2.13;;;1.57;;
3985;SDS011;2007;48.750;9.278;2023-02-28T08:30:08;2.30;;;1.80;;
3985;SDS011;2007;48.750;9.278;2023-02-28T08:32:38;2.10;;;1.50;;
3985;SDS011;2007;48.750;9.278;2023-02-28T08:35:08;2.27;;;1.70;;
3985;SDS011;2007;48.750;9.278;2023-02-28T08:37:36;3.10;;;2.27;;
3985;SDS011;2007;48.750;9.278;2023-02-28T08:40:05;2.83;;;1.70;;
3985;SDS011;2007;48.750;9.278;2023-02-28T08:42:35;2.43;;;1.77;;
3985;SDS011;2007;48.750;9.278;2023-02-28T08:45:03;2.80;;;1.57;;
3985;SDS011;2007;48.750;9.278;2023-02-28T08:47:32;3.00;;;1.90;;
3985;SDS011;2007;48.750;9.278;2023-02-28T08:50:00;2.27;;;1.90;;
3985;SDS011;2007;48.750;9.278;2023-02-28T08:52:29;2.67;;;1.90;;
3985;SDS011;2007;48.750;9.278;2023-02-28T08:54:57;3.13;;;2.00;;
3985;SDS011;2007;48.750;9.278;2023-02-28T08:57:25;2.47;;;1.60;;
3985;SDS011;2007;48.750;9.278;2023-02-28T08:59:53;2.30;;;1.73;;
3985;SDS011;2007;48.750;9.278;2023-02-28T09:02:21;3.80;;;2.37;;
3985;SDS011;2007;48.750;9.278;2023-02-28T09:04:49;1.90;;;1.60;;
3985;SDS011;2007;48.750;9.278;2023-02-28T09:07:17;2.87;;;2.13;;
3985;SDS011;2007;48.750;9.278;2023-02-28T09:09:47;2.50;;;1.73;;
3985;SDS011;2007;48.750;9.278;2023-02-28T09:12:21;2.30;;;1.90;;
3985;SDS011;2007;48.750;9.278;2023-02-28T09:14:49;2.70;;;1.57;;
3985;SDS011;2007;48.750;9.278;2023-02-28T09:17:18;2.77;;;1.73;;
3985;SDS011;2007;48.750;9.278;2023-02-28T09:19:47;3.50;;;1.73;;
3985;SDS011;2007;48.750;9.278;2023-02-28T09:22:15;2.73;;;2.20;;
3985;SDS011;2007;48.750;9.278;2023-02-28T09:24:43;2.43;;;1.60;;
3985;SDS011;2007;48.750;9.278;2023-02-28T09:27:13;4.73;;;2.20;;
3985;SDS011;2007;48.750;9.278;2023-02-28T09:29:40;3.10;;;2.37;;
3985;SDS011;2007;48.750;9.278;2023-02-28T09:32:08;2.97;;;2.23;;
3985;SDS011;2007;48.750;9.278;2023-02-28T09:34:36;2.13;;;1.93;;
3985;SDS011;2007;48.750;9.278;2023-02-28T09:37:05;2.50;;;1.80;;
3985;SDS011;2007;48.750;9.278;2023-02-28T09:39:33;2.27;;;1.63;;
3985;SDS011;2007;48.750;9.278;2023-02-28T09:42:01;5.40;;;2.07;;
3985;SDS011;2007;48.750;9.278;2023-02-28T09:44:33;2.67;;;1.87;;
3985;SDS011;2007;48.750;9.278;2023-02-28T09:47:05;2.20;;;1.83;;
3985;SDS011;2007;48.750;9.278;2023-02-28T09:49:39;2.40;;;1.87;;
3985;SDS011;2007;48.750;9.278;2023-02-28T09:52:14;2.13;;;1.47;;
3985;SDS011;2007;48.750;9.278;2023-02-28T09:54:45;4.07;;;2.17;;
3985;SDS011;2007;48.750;9.278;2023-02-28T09:57:15;2.47;;;2.00;;
3985;SDS011;2007;48.750;9.278;2023-02-28T09:59:54;2.77;;;1.80;;
3985;SDS011;2007;48.750;9.278;2023-02-28T10:05:27;2.70;;;1.90;;
3985;SDS011;2007;48.750;9.278;2023-02-28T10:08:01;3.57;;;2.10;;
3985;SDS011;2007;48.750;9.278;2023-02-28T10:10:35;3.00;;;2.00;;
3985;SDS011;2007;48.750;9.278;2023-02-28T10:13:06;2.20;;;1.80;;
3985;SDS011;2007;48.750;9.278;2023-02-28T10:15:45;1.97;;;1.70;;
3985;SDS011;2007;48.750;9.278;2023-02-28T10:18:15;2.10;;;1.90;;
3985;SDS011;2007;48.750;9.278;2023-02-28T10:20:48;3.40;;;2.40;;
3985;SDS011;2007;48.750;9.278;2023-02-28T10:23:19;4.23;;;2.13;;
3985;SDS011;2007;48.750;9.278;2023-02-28T10:25:50;3.33;;;2.00;;
3985;SDS011;2007;48.750;9.278;2023-02-28T10:28:24;2.90;;;1.83;;
3985;SDS011;2007;48.750;9.278;2023-02-28T10:30:55;2.90;;;2.00;;
3985;SDS011;2007;48.750;9.278;2023-02-28T10:33:25;2.13;;;1.77;;
3985;SDS011;2007;48.750;9.278;2023-02-28T10:35:57;3.97;;;2.20;;
3985;SDS011;2007;48.750;9.278;2023-02-28T10:38:26;2.67;;;2.00;;
3985;SDS011;2007;48.750;9.278;2023-02-28T10:41:05;2.20;;;2.00;;
3985;SDS011;2007;48.750;9.278;2023-02-28T10:43:35;3.40;;;2.40;;
3985;SDS011;2007;48.750;9.278;2023-02-28T10:46:11;2.50;;;1.83;;
3985;SDS011;2007;48.750;9.278;2023-02-28T10:49:00;2.30;;;1.87;;
3985;SDS011;2007;48.750;9.278;2023-02-28T10:51:34;2.73;;;2.20;;
3985;SDS011;2007;48.750;9.278;2023-02-28T10:54:04;2.20;;;1.83;;
3985;SDS011;2007;48.750;9.278;2023-02-28T10:56:32;2.77;;;1.77;;
3985;SDS011;2007;48.750;9.278;2023-02-28T10:59:02;2.83;;;2.13;;
3985;SDS011;2007;48.750;9.278;2023-02-28T11:01:49;3.30;;;2.33;;
3985;SDS011;2007;48.750;9.278;2023-02-28T11:04:23;2.50;;;2.10;;
3985;SDS011;2007;48.750;9.278;2023-02-28T11:07:02;3.43;;;1.90;;
3985;SDS011;2007;48.750;9.278;2023-02-28T11:09:33;2.93;;;2.10;;
3985;SDS011;2007;48.750;9.278;2023-02-28T11:12:02;2.33;;;2.10;;
3985;SDS011;2007;48.750;9.278;2023-02-28T11:14:46;2.77;;;2.47;;
3985;SDS011;2007;48.750;9.278;2023-02-28T11:17:19;2.93;;;2.20;;
3985;SDS011;2007;48.750;9.278;2023-02-28T11:19:50;3.20;;;2.20;;
3985;SDS011;2007;48.750;9.278;2023-02-28T11:22:21;3.33;;;2.30;;
3985;SDS011;2007;48.750;9.278;2023-02-28T11:24:51;2.43;;;2.03;;
3985;SDS011;2007;48.750;9.278;2023-02-28T11:30:23;2.57;;;2.33;;
3985;SDS011;2007;48.750;9.278;2023-02-28T11:32:54;2.33;;;2.07;;
3985;SDS011;2007;48.750;9.278;2023-02-28T11:35:23;3.20;;;2.60;;
3985;SDS011;2007;48.750;9.278;2023-02-28T11:37:55;3.70;;;2.17;;
3985;SDS011;2007;48.750;9.278;2023-02-28T11:40:28;2.23;;;1.83;;
3985;SDS011;2007;48.750;9.278;2023-02-28T11:43:07;2.53;;;2.00;;
3985;SDS011;2007;48.750;9.278;2023-02-28T11:45:49;2.80;;;2.03;;
3985;SDS011;2007;48.750;9.278;2023-02-28T11:48:32;2.87;;;2.57;;
3985;SDS011;2007;48.750;9.278;2023-02-28T11:51:10;2.60;;;2.00;;
3985;SDS011;2007;48.750;9.278;2023-02-28T11:53:59;2.60;;;2.10;;
3985;SDS011;2007;48.750;9.278;2023-02-28T11:56:41;3.53;;;2.37;;
3985;SDS011;2007;48.750;9.278;2023-02-28T11:59:20;2.70;;;2.10;;
3985;SDS011;2007;48.750;9.278;2023-02-28T12:02:06;2.33;;;1.97;;
3985;SDS011;2007;48.750;9.278;2023-02-28T12:04:53;2.87;;;2.33;;
3985;SDS011;2007;48.750;9.278;2023-02-28T12:07:40;2.80;;;2.33;;
3985;SDS011;2007;48.750;9.278;2023-02-28T12:10:18;3.00;;;1.83;;
3985;SDS011;2007;48.750;9.278;2023-02-28T12:12:51;2.17;;;1.93;;
3985;SDS011;2007;48.750;9.278;2023-02-28T12:18:33;2.67;;;1.70;;
3985;SDS011;2007;48.750;9.278;2023-02-28T12:21:11;2.40;;;1.87;;
3985;SDS011;2007;48.750;9.278;2023-02-28T12:23:52;2.57;;;1.80;;
3985;SDS011;2007;48.750;9.278;2023-02-28T12:26:31;3.97;;;2.47;;
3985;SDS011;2007;48.750;9.278;2023-02-28T12:29:08;2.67;;;2.20;;
3985;SDS011;2007;48.750;9.278;2023-02-28T12:31:41;2.97;;;2.07;;
3985;SDS011;2007;48.750;9.278;2023-02-28T12:34:16;2.87;;;2.20;;
3985;SDS011;2007;48.750;9.278;2023-02-28T12:36:49;2.63;;;2.00;;
3985;SDS011;2007;48.750;9.278;2023-02-28T12:39:22;2.73;;;2.37;;
3985;SDS011;2007;48.750;9.278;2023-02-28T12:41:55;3.67;;;2.60;;
3985;SDS011;2007;48.750;9.278;2023-02-28T12:44:28;2.47;;;2.10;;
3985;SDS011;2007;48.750;9.278;2023-02-28T12:47:00;2.20;;;1.63;;
3985;SDS011;2007;48.750;9.278;2023-02-28T12:49:33;2.67;;;2.20;;
3985;SDS011;2007;48.750;9.278;2023-02-28T12:52:05;3.40;;;2.03;;
3985;SDS011;2007;48.750;9.278;2023-02-28T12:54:38;3.03;;;2.33;;
3985;SDS011;2007;48.750;9.278;2023-02-28T12:57:12;4.10;;;2.53;;
3985;SDS011;2007;48.750;9.278;2023-02-28T12:59:47;3.40;;;2.00;;
3985;SDS011;2007;48.750;9.278;2023-02-28T13:02:22;2.20;;;1.80;;
3985;SDS011;2007;48.750;9.278;2023-02-28T13:08:33;3.07;;;2.30;;
3985;SDS011;2007;48.750;9.278;2023-02-28T13:11:23;2.60;;;1.83;;
3985;SDS011;2007;48.750;9.278;2023-02-28T13:13:56;2.40;;;2.17;;
3985;SDS011;2007;48.750;9.278;2023-02-28T13:16:26;2.73;;;2.40;;
3985;SDS011;2007;48.750;9.278;2023-02-28T13:19:07;2.90;;;2.43;;
3985;SDS011;2007;48.750;9.278;2023-02-28T13:21:41;3.50;;;2.10;;
3985;SDS011;2007;48.750;9.278;2023-02-28T13:24:12;3.00;;;2.10;;
3985;SDS011;2007;48.750;9.278;2023-02-28T13:27:17;3.77;;;1.97;;
3985;SDS011;2007;48.750;9.278;2023-02-28T13:29:59;3.10;;;1.90;;
3985;SDS011;2007;48.750;9.278;2023-02-28T13:32:32;2.70;;;2.10;;
3985;SDS011;2007;48.750;9.278;2023-02-28T13:38:16;2.83;;;2.40;;
3985;SDS011;2007;48.750;9.278;2023-02-28T13:44:07;2.90;;;2.63;;
3985;SDS011;2007;48.750;9.278;2023-02-28T13:49:39;3.07;;;2.23;;
3985;SDS011;2007;48.750;9.278;2023-02-28T13:52:10;5.40;;;2.40;;
3985;SDS011;2007;48.750;9.278;2023-02-28T13:54:50;2.60;;;2.17;;
3985;SDS011;2007;48.750;9.278;2023-02-28T13:57:27;2.67;;;2.20;;
3985;SDS011;2007;48.750;9.278;2023-02-28T14:00:13;3.17;;;2.10;;
3985;SDS011;2007;48.750;9.278;2023-02-28T14:02:55;3.87;;;2.50;;
3985;SDS011;2007;48.750;9.278;2023-02-28T14:05:35;2.33;;;2.07;;
3985;SDS011;2007;48.750;9.278;2023-02-28T14:08:05;2.93;;;1.80;;
3985;SDS011;2007;48.750;9.278;2023-02-28T14:10:42;2.13;;;1.93;;
3985;SDS011;2007;48.750;9.278;2023-02-28T14:13:13;2.90;;;2.00;;
3985;SDS011;2007;48.750;9.278;2023-02-28T14:15:58;2.83;;;2.20;;
3985;SDS011;2007;48.750;9.278;2023-02-28T14:18:29;2.40;;;2.20;;
3985;SDS011;2007;48.750;9.278;2023-02-28T14:21:01;3.40;;;2.13;;
3985;SDS011;2007;48.750;9.278;2023-02-28T14:23:41;3.10;;;2.30;;
3985;SDS011;2007;48.750;9.278;2023-02-28T14:26:35;2.60;;;2.40;;
3985;SDS011;2007;48.750;9.278;2023-02-28T14:29:24;2.40;;;1.70;;
3985;SDS011;2007;48.750;9.278;2023-02-28T14:32:15;2.63;;;2.17;;
3985;SDS011;2007;48.750;9.278;2023-02-28T14:34:52;2.93;;;2.30;;
3985;SDS011;2007;48.750;9.278;2023-02-28T14:37:27;3.30;;;2.33;;
3985;SDS011;2007;48.750;9.278;2023-02-28T14:39:57;2.90;;;2.17;;
3985;SDS011;2007;48.750;9.278;2023-02-28T14:42:27;2.20;;;1.70;;
3985;SDS011;2007;48.750;9.278;2023-02-28T14:44:57;2.40;;;1.70;;
3985;SDS011;2007;48.750;9.278;2023-02-28T14:47:27;2.83;;;2.17;;
3985;SDS011;2007;48.750;9.278;2023-02-28T14:49:58;2.83;;;2.47;;
3985;SDS011;2007;48.750;9.278;2023-02-28T14:52:28;2.57;;;2.03;;
3985;SDS011;2007;48.750;9.278;2023-02-28T14:54:58;4.37;;;1.93;;
3985;SDS011;2007;48.750;9.278;2023-02-28T14:57:29;2.83;;;2.03;;
3985;SDS011;2007;48.750;9.278;2023-02-28T14:59:59;3.07;;;2.70;;
3985;SDS011;2007;48.750;9.278;2023-02-28T15:02:33;2.63;;;2.10;;
3985;SDS011;2007;48.750;9.278;2023-02-28T15:05:10;2.13;;;1.93;;
3985;SDS011;2007;48.750;9.278;2023-02-28T15:07:48;2.57;;;1.80;;
3985;SDS011;2007;48.750;9.278;2023-02-28T15:10:28;2.90;;;2.43;;
3985;SDS011;2007;48.750;9.278;2023-02-28T15:12:57;4.93;;;2.10;;
3985;SDS011;2007;48.750;9.278;2023-02-28T15:15:30;2.73;;;2.20;;
3985;SDS011;2007;48.750;9.278;2023-02-28T15:18:27;2.43;;;2.03;;
3985;SDS011;2007;48.750;9.278;2023-02-28T15:21:02;3.13;;;2.63;;
3985;SDS011;2007;48.750;9.278;2023-02-28T15:23:34;2.87;;;2.10;;
3985;SDS011;2007;48.750;9.278;2023-02-28T15:26:03;2.90;;;2.07;;
3985;SDS011;2007;48.750;9.278;2023-02-28T15:28:32;2.60;;;2.27;;
3985;SDS011;2007;48.750;9.278;2023-02-28T15:31:01;3.87;;;2.57;;
3985;SDS011;2007;48.750;9.278;2023-02-28T15:33:32;2.90;;;2.20;;
3985;SDS011;2007;48.750;9.278;2023-02-28T15:36:11;2.23;;;2.03;;
3985;SDS011;2007;48.750;9.278;2023-02-28T15:38:42;2.70;;;2.27;;
3985;SDS011;2007;48.750;9.278;2023-02-28T15:41:21;2.93;;;2.20;;
3985;SDS011;2007;48.750;9.278;2023-02-28T15:46:41;2.00;;;1.80;;
3985;SDS011;2007;48.750;9.278;2023-02-28T15:49:21;2.50;;;1.93;;
3985;SDS011;2007;48.750;9.278;2023-02-28T15:51:51;4.40;;;2.50;;
3985;SDS011;2007;48.750;9.278;2023-02-28T15:54:21;2.77;;;2.10;;
3985;SDS011;2007;48.750;9.278;2023-02-28T15:56:54;2.37;;;1.93;;
3985;SDS011;2007;48.750;9.278;2023-02-28T15:59:24;2.27;;;2.07;;
3985;SDS011;2007;48.750;9.278;2023-02-28T16:02:13;3.07;;;2.20;;
3985;SDS011;2007;48.750;9.278;2023-02-28T16:04:56;3.80;;;2.40;;
3985;SDS011;2007;48.750;9.278;2023-02-28T16:07:29;1.70;;;1.50;;
3985;SDS011;2007;48.750;9.278;2023-02-28T16:09:57;2.97;;;2.23;;
3985;SDS011;2007;48.750;9.278;2023-02-28T16:12:27;3.80;;;2.57;;
3985;SDS011;2007;48.750;9.278;2023-02-28T16:14:56;2.30;;;2.10;;
3985;SDS011;2007;48.750;9.278;2023-02-28T16:17:28;3.30;;;2.80;;